Time;durP1;ratioP1;P1;durP2;ratioP2;P2;SDS_P1;SDS_P2;PMS_P1;PMS_P2;Temp;Humidity;BMP_temperature;BMP_pressure;BME280_temperature;BME280_humidity;BME280_pressure;Samples;Min_cycle;Max_cycle;Signal;HPM_P1;HPM_P2
2022/01/30 00:01:35;;;;;;;15.70;3.20;;;;;;;;;;4991218;28;20062;-80
2022/01/30 00:04:01;;;;;;;16.75;3.45;;;;;;;;;;4970030;28;20054;-81
2022/01/30 00:06:27;;;;;;;21.10;4.07;;;;;;;;;;4970271;28;20197;-81
2022/01/30 00:08:52;;;;;;;17.73;4.32;;;;;;;;;;4970487;28;20035;-80
2022/01/30 00:11:23;;;;;;;15.88;3.67;;;;;;;;;;4970263;28;20055;-81
2022/01/30 00:13:49;;;;;;;15.10;3.30;;;;;;;;;;4967969;28;20043;-81
2022/01/30 00:16:17;;;;;;;13.68;2.70;;;;;;;;;;4951775;29;20050;-81
2022/01/30 00:23:53;;;;;;;17.70;3.50;;;;;;;;;;4953374;29;20050;-80
2022/01/30 00:26:20;;;;;;;18.70;3.85;;;;;;;;;;4934720;28;20054;-80
2022/01/30 00:28:46;;;;;;;15.27;3.30;;;;;;;;;;4957189;28;20047;-81
2022/01/30 00:31:19;;;;;;;16.20;3.65;;;;;;;;;;4955894;28;20053;-81
2022/01/30 00:33:45;;;;;;;14.43;3.10;;;;;;;;;;4961344;28;20485;-81
2022/01/30 00:36:11;;;;;;;14.68;3.28;;;;;;;;;;4950632;29;20051;-82
2022/01/30 00:38:37;;;;;;;16.90;4.05;;;;;;;;;;4949998;29;20130;-81
2022/01/30 00:41:03;;;;;;;18.48;2.90;;;;;;;;;;4950946;29;20035;-81
2022/01/30 00:43:29;;;;;;;18.70;3.88;;;;;;;;;;4950985;29;20047;-81
2022/01/30 00:45:55;;;;;;;16.80;3.30;;;;;;;;;;4949708;29;20401;-81
2022/01/30 00:48:21;;;;;;;21.23;4.07;;;;;;;;;;4946806;29;20095;-80
2022/01/30 00:50:47;;;;;;;16.92;3.50;;;;;;;;;;4946836;29;20507;-82
2022/01/30 00:53:15;;;;;;;13.18;3.35;;;;;;;;;;4947221;29;20374;-81
2022/01/30 00:55:41;;;;;;;14.90;3.20;;;;;;;;;;4946929;29;20066;-81
2022/01/30 00:58:07;;;;;;;17.15;3.30;;;;;;;;;;4947209;29;20043;-81
2022/01/30 01:00:34;;;;;;;19.05;4.18;;;;;;;;;;4948824;29;20057;-80
2022/01/30 01:03:00;;;;;;;16.92;3.20;;;;;;;;;;4947248;29;20058;-81
2022/01/30 01:05:28;;;;;;;17.85;3.35;;;;;;;;;;4946181;29;20044;-81
2022/01/30 01:07:57;;;;;;;22.42;3.65;;;;;;;;;;4945409;29;20509;-81
2022/01/30 01:10:39;;;;;;;18.85;3.55;;;;;;;;;;4948458;28;20604;-81
2022/01/30 01:23:51;;;;;;;13.90;2.90;;;;;;;;;;4964996;28;20033;-80
2022/01/30 01:26:18;;;;;;;16.85;3.40;;;;;;;;;;4946724;28;20061;-80
2022/01/30 01:28:44;;;;;;;14.68;3.50;;;;;;;;;;4964028;28;20057;-80
2022/01/30 01:31:11;;;;;;;14.98;2.97;;;;;;;;;;4964089;28;20050;-80
2022/01/30 01:36:06;;;;;;;18.45;3.13;;;;;;;;;;4950305;28;20065;-80
2022/01/30 01:38:32;;;;;;;13.93;3.13;;;;;;;;;;4965094;28;20035;-81
2022/01/30 01:40:58;;;;;;;22.38;3.85;;;;;;;;;;4967184;28;20215;-80
2022/01/30 01:43:26;;;;;;;15.13;3.72;;;;;;;;;;4967503;28;20404;-80
2022/01/30 01:45:54;;;;;;;15.60;3.47;;;;;;;;;;4967504;28;20057;-81
2022/01/30 01:48:21;;;;;;;18.67;3.72;;;;;;;;;;4967961;28;20465;-80
2022/01/30 01:51:05;;;;;;;14.45;2.90;;;;;;;;;;4967195;28;20062;-80
2022/01/30 01:53:32;;;;;;;16.42;2.90;;;;;;;;;;4966139;28;20058;-80
2022/01/30 01:55:58;;;;;;;12.88;2.90;;;;;;;;;;4954742;28;20059;-80
2022/01/30 01:58:26;;;;;;;13.80;2.85;;;;;;;;;;4943474;29;20074;-81
2022/01/30 02:00:52;;;;;;;12.55;3.05;;;;;;;;;;4943681;29;20400;-81
2022/01/30 02:03:19;;;;;;;14.52;2.78;;;;;;;;;;4944716;29;20827;-80
2022/01/30 02:05:52;;;;;;;11.32;2.97;;;;;;;;;;4942955;29;20048;-80
2022/01/30 02:14:03;;;;;;;12.95;3.10;;;;;;;;;;4944343;28;20504;-80
2022/01/30 02:27:21;;;;;;;17.70;3.42;;;;;;;;;;4944470;28;20540;-80
2022/01/30 02:29:48;;;;;;;13.63;3.45;;;;;;;;;;4943802;29;20047;-80
2022/01/30 02:32:15;;;;;;;16.67;2.97;;;;;;;;;;4942658;29;20386;-80
2022/01/30 02:34:40;;;;;;;13.18;2.67;;;;;;;;;;4962727;28;20077;-80
2022/01/30 02:37:07;;;;;;;13.85;2.53;;;;;;;;;;4929904;29;20059;-81
2022/01/30 02:39:33;;;;;;;12.60;2.88;;;;;;;;;;4946757;29;20232;-80
2022/01/30 02:42:00;;;;;;;16.00;3.30;;;;;;;;;;4947237;29;20051;-80
2022/01/30 02:44:39;;;;;;;13.50;2.78;;;;;;;;;;4946750;29;20043;-80
2022/01/30 02:47:08;;;;;;;13.82;3.35;;;;;;;;;;4946417;29;20047;-79
2022/01/30 02:49:44;;;;;;;14.35;2.65;;;;;;;;;;4946653;29;20556;-80
2022/01/30 02:52:12;;;;;;;9.70;2.70;;;;;;;;;;4945690;28;20503;-80
2022/01/30 02:54:39;;;;;;;13.20;2.83;;;;;;;;;;4946301;29;20039;-80
2022/01/30 02:57:05;;;;;;;13.32;3.00;;;;;;;;;;4946651;29;20046;-81
2022/01/30 02:59:31;;;;;;;15.20;3.20;;;;;;;;;;4947005;29;20035;-80
2022/01/30 03:01:57;;;;;;;15.07;2.70;;;;;;;;;;4946777;29;20544;-80
2022/01/30 03:04:23;;;;;;;12.98;3.08;;;;;;;;;;4947218;29;20043;-80
2022/01/30 03:06:49;;;;;;;16.10;3.35;;;;;;;;;;4948172;29;20163;-80
2022/01/30 03:09:14;;;;;;;15.63;3.20;;;;;;;;;;4946868;28;20382;-80
2022/01/30 03:11:40;;;;;;;13.43;3.60;;;;;;;;;;4942614;29;20078;-81
2022/01/30 03:14:06;;;;;;;13.60;3.05;;;;;;;;;;4942182;29;20501;-80
2022/01/30 03:16:33;;;;;;;12.88;2.80;;;;;;;;;;4943005;29;20078;-80
2022/01/30 03:19:00;;;;;;;14.05;3.30;;;;;;;;;;4944373;29;20457;-81
2022/01/30 03:21:26;;;;;;;13.52;2.83;;;;;;;;;;4946491;29;20050;-80
2022/01/30 03:23:52;;;;;;;16.13;3.10;;;;;;;;;;4946157;29;20059;-79
2022/01/30 03:26:18;;;;;;;13.55;2.85;;;;;;;;;;4946163;29;20097;-79
2022/01/30 03:28:45;;;;;;;19.77;3.97;;;;;;;;;;4946116;29;20130;-80
2022/01/30 03:31:12;;;;;;;14.75;3.25;;;;;;;;;;4946375;29;20054;-80
2022/01/30 03:33:39;;;;;;;19.08;3.75;;;;;;;;;;4954323;28;20047;-80
2022/01/30 03:36:05;;;;;;;13.35;2.67;;;;;;;;;;4954198;28;20667;-80
2022/01/30 03:38:32;;;;;;;15.75;2.88;;;;;;;;;;4946110;29;20047;-80
2022/01/30 03:40:58;;;;;;;14.00;3.00;;;;;;;;;;4946706;29;20398;-80
2022/01/30 03:43:24;;;;;;;12.38;2.75;;;;;;;;;;4945651;29;20043;-80
2022/01/30 03:45:51;;;;;;;21.38;3.63;;;;;;;;;;4945794;29;20051;-79
2022/01/30 03:48:17;;;;;;;17.10;3.08;;;;;;;;;;4945384;29;20054;-80
2022/01/30 03:50:43;;;;;;;15.18;3.03;;;;;;;;;;4946648;29;20043;-80
2022/01/30 03:53:10;;;;;;;16.52;3.53;;;;;;;;;;4946003;29;20066;-80
2022/01/30 03:55:37;;;;;;;22.63;3.05;;;;;;;;;;4946167;29;20058;-79
2022/01/30 03:58:03;;;;;;;14.93;3.25;;;;;;;;;;4945758;29;20055;-80
2022/01/30 04:00:29;;;;;;;15.80;2.80;;;;;;;;;;4928324;29;20062;-80
2022/01/30 04:02:55;;;;;;;17.05;3.20;;;;;;;;;;4945578;28;20066;-80
2022/01/30 04:05:21;;;;;;;19.40;2.90;;;;;;;;;;4926126;29;20437;-81
2022/01/30 04:07:47;;;;;;;15.68;3.05;;;;;;;;;;4958907;28;20050;-79
2022/01/30 04:10:14;;;;;;;19.75;3.63;;;;;;;;;;4964789;28;20039;-79
2022/01/30 04:12:41;;;;;;;17.77;3.10;;;;;;;;;;4965359;28;20039;-80
2022/01/30 04:15:07;;;;;;;14.23;3.03;;;;;;;;;;4964673;28;20046;-80
2022/01/30 04:17:33;;;;;;;13.43;2.70;;;;;;;;;;4964440;28;20047;-80
2022/01/30 04:20:00;;;;;;;20.75;3.67;;;;;;;;;;4947165;28;20587;-80
2022/01/30 04:22:26;;;;;;;16.70;3.35;;;;;;;;;;4963808;28;20066;-80
2022/01/30 04:24:52;;;;;;;22.77;3.55;;;;;;;;;;4965737;28;20050;-80
2022/01/30 04:27:20;;;;;;;22.40;3.72;;;;;;;;;;4964981;28;20069;-80
2022/01/30 04:29:47;;;;;;;21.73;3.22;;;;;;;;;;4964815;28;20473;-80
2022/01/30 04:32:14;;;;;;;17.27;2.90;;;;;;;;;;4964797;28;20039;-79
2022/01/30 04:34:46;;;;;;;24.85;3.38;;;;;;;;;;4943137;28;20055;-79
2022/01/30 04:37:23;;;;;;;14.05;3.25;;;;;;;;;;4946104;29;20045;-80
2022/01/30 05:02:05;;;;;;;14.95;2.78;;;;;;;;;;4944534;28;20660;-80
2022/01/30 05:09:39;;;;;;;14.50;2.95;;;;;;;;;;4965368;28;20046;-80
2022/01/30 05:12:05;;;;;;;20.75;4.15;;;;;;;;;;4964264;28;20047;-79
2022/01/30 05:14:36;;;;;;;15.57;3.20;;;;;;;;;;4965585;28;20377;-79
2022/01/30 05:17:04;;;;;;;16.08;3.42;;;;;;;;;;4969153;28;20042;-79
2022/01/30 05:19:31;;;;;;;16.42;3.28;;;;;;;;;;4966536;28;20441;-80
2022/01/30 05:21:58;;;;;;;16.67;3.30;;;;;;;;;;4967205;28;20043;-79
2022/01/30 05:24:24;;;;;;;19.25;3.38;;;;;;;;;;4968551;28;20051;-79
2022/01/30 05:26:51;;;;;;;19.80;3.65;;;;;;;;;;4968887;28;20120;-79
2022/01/30 05:29:17;;;;;;;19.23;3.08;;;;;;;;;;4967756;28;20050;-80
2022/01/30 05:31:44;;;;;;;21.50;3.58;;;;;;;;;;4967612;28;20039;-79
2022/01/30 05:34:10;;;;;;;21.85;4.05;;;;;;;;;;4953645;28;20043;-79
2022/01/30 05:36:40;;;;;;;18.58;2.95;;;;;;;;;;4948580;29;20059;-79
2022/01/30 05:39:07;;;;;;;20.60;3.85;;;;;;;;;;4948839;29;20054;-79
2022/01/30 05:41:34;;;;;;;14.95;3.05;;;;;;;;;;4948240;29;20482;-79
2022/01/30 05:44:09;;;;;;;16.98;3.05;;;;;;;;;;4948529;29;20494;-80
2022/01/30 05:46:42;;;;;;;18.38;2.80;;;;;;;;;;4948182;29;20055;-79
2022/01/30 05:49:12;;;;;;;15.25;3.15;;;;;;;;;;4949108;29;20031;-79
2022/01/30 05:51:38;;;;;;;18.20;2.85;;;;;;;;;;4948002;29;20054;-80
2022/01/30 05:54:04;;;;;;;19.40;3.35;;;;;;;;;;4947498;29;20055;-79
2022/01/30 05:56:30;;;;;;;21.13;3.70;;;;;;;;;;4947932;29;20511;-81
2022/01/30 05:58:56;;;;;;;20.95;3.40;;;;;;;;;;4948580;29;20181;-81
2022/01/30 06:01:22;;;;;;;14.38;2.80;;;;;;;;;;4949289;29;20058;-81
2022/01/30 06:03:48;;;;;;;23.40;3.55;;;;;;;;;;4948578;29;20489;-81
2022/01/30 06:06:14;;;;;;;13.60;3.05;;;;;;;;;;4948143;29;20082;-81
2022/01/30 06:11:10;;;;;;;14.88;2.85;;;;;;;;;;4948847;29;20035;-80
2022/01/30 06:13:36;;;;;;;19.83;3.13;;;;;;;;;;4938904;28;20521;-81
2022/01/30 06:16:03;;;;;;;11.38;2.80;;;;;;;;;;4967304;28;20058;-81
2022/01/30 06:18:29;;;;;;;18.33;2.88;;;;;;;;;;4948385;28;20496;-81
2022/01/30 06:20:55;;;;;;;24.35;3.20;;;;;;;;;;4953213;28;20049;-80
2022/01/30 06:23:25;;;;;;;13.45;2.95;;;;;;;;;;4955886;28;20035;-81
2022/01/30 06:25:55;;;;;;;16.33;3.17;;;;;;;;;;4959917;28;20054;-79
2022/01/30 06:28:21;;;;;;;20.17;2.90;;;;;;;;;;4942642;28;20485;-80
2022/01/30 06:30:47;;;;;;;9.52;2.90;;;;;;;;;;4967086;28;20046;-79
2022/01/30 06:33:13;;;;;;;17.88;3.20;;;;;;;;;;4960718;28;20072;-79
2022/01/30 06:35:39;;;;;;;18.20;2.83;;;;;;;;;;4955315;28;20123;-80
2022/01/30 06:38:05;;;;;;;16.85;3.08;;;;;;;;;;4967688;28;20066;-81
2022/01/30 06:40:32;;;;;;;18.55;3.05;;;;;;;;;;4964939;28;20682;-82
2022/01/30 06:42:58;;;;;;;12.95;2.50;;;;;;;;;;4947481;29;20154;-81
2022/01/30 06:45:24;;;;;;;23.83;3.70;;;;;;;;;;4947514;29;20043;-83
2022/01/30 06:47:51;;;;;;;15.40;2.83;;;;;;;;;;4929935;29;20091;-80
2022/01/30 06:50:18;;;;;;;12.95;3.22;;;;;;;;;;4947712;28;20039;-83
2022/01/30 06:52:44;;;;;;;18.27;2.63;;;;;;;;;;4948060;28;20054;-83
2022/01/30 06:55:10;;;;;;;17.65;2.85;;;;;;;;;;4949217;28;20031;-81
2022/01/30 06:57:45;;;;;;;15.45;2.95;;;;;;;;;;4947041;28;20062;-81
2022/01/30 07:00:11;;;;;;;13.00;2.42;;;;;;;;;;4944879;28;20497;-80
2022/01/30 07:02:37;;;;;;;21.30;3.42;;;;;;;;;;4929638;28;20058;-80
2022/01/30 07:05:04;;;;;;;19.45;3.90;;;;;;;;;;4947171;28;20047;-80
2022/01/30 07:07:30;;;;;;;14.35;2.97;;;;;;;;;;4941962;29;20481;-79
2022/01/30 07:09:56;;;;;;;11.45;2.88;;;;;;;;;;4943771;29;20485;-80
2022/01/30 07:12:22;;;;;;;18.23;3.50;;;;;;;;;;4944559;29;20050;-79
2022/01/30 07:14:48;;;;;;;22.38;2.78;;;;;;;;;;4944271;29;20047;-80
2022/01/30 07:17:14;;;;;;;12.70;2.33;;;;;;;;;;4944170;29;20065;-79
2022/01/30 07:19:40;;;;;;;9.52;2.08;;;;;;;;;;4944357;29;20035;-79
2022/01/30 07:22:06;;;;;;;18.05;2.90;;;;;;;;;;4939854;29;20050;-79
2022/01/30 07:24:32;;;;;;;15.55;3.15;;;;;;;;;;4930118;29;20051;-78
2022/01/30 07:26:58;;;;;;;14.68;2.55;;;;;;;;;;4946706;29;20070;-79
2022/01/30 07:29:24;;;;;;;15.52;2.53;;;;;;;;;;4947621;29;20051;-79
2022/01/30 07:31:50;;;;;;;19.77;3.13;;;;;;;;;;4950531;29;20054;-79
2022/01/30 07:34:16;;;;;;;15.50;3.20;;;;;;;;;;4941529;28;20122;-79
2022/01/30 07:36:43;;;;;;;14.23;2.80;;;;;;;;;;4954904;28;20058;-78
2022/01/30 07:39:15;;;;;;;15.38;3.00;;;;;;;;;;4952222;29;20051;-79
2022/01/30 07:41:45;;;;;;;11.10;2.30;;;;;;;;;;4961335;29;20046;-80
2022/01/30 07:44:11;;;;;;;19.30;2.47;;;;;;;;;;4972646;28;20038;-79
2022/01/30 07:46:37;;;;;;;14.35;2.60;;;;;;;;;;4971889;28;20031;-79
2022/01/30 07:49:03;;;;;;;16.23;2.65;;;;;;;;;;4971004;28;20039;-79
2022/01/30 07:51:29;;;;;;;16.65;2.78;;;;;;;;;;4971644;28;20189;-79
2022/01/30 07:53:55;;;;;;;12.05;2.55;;;;;;;;;;4969720;28;20143;-79
2022/01/30 07:56:23;;;;;;;13.65;2.50;;;;;;;;;;4972616;28;20116;-80
2022/01/30 07:58:49;;;;;;;11.55;2.25;;;;;;;;;;4972299;28;20043;-79
2022/01/30 08:01:15;;;;;;;12.27;2.28;;;;;;;;;;4973139;28;20045;-79
2022/01/30 08:03:41;;;;;;;13.82;2.65;;;;;;;;;;4961012;28;20055;-80
2022/01/30 08:06:07;;;;;;;10.32;2.05;;;;;;;;;;4955972;28;20043;-80
2022/01/30 08:08:33;;;;;;;14.07;3.38;;;;;;;;;;4960157;28;20401;-80
2022/01/30 08:10:59;;;;;;;13.90;2.63;;;;;;;;;;4972435;28;20046;-79
2022/01/30 08:13:25;;;;;;;13.85;2.53;;;;;;;;;;4972674;28;20047;-79
2022/01/30 08:15:51;;;;;;;10.90;2.42;;;;;;;;;;4972208;28;20050;-79
2022/01/30 08:18:17;;;;;;;13.82;3.03;;;;;;;;;;4971663;28;20146;-79
2022/01/30 08:20:43;;;;;;;10.25;2.20;;;;;;;;;;4970903;28;20046;-79
2022/01/30 08:23:14;;;;;;;14.18;3.15;;;;;;;;;;4972034;28;20053;-80
2022/01/30 08:25:40;;;;;;;11.38;2.05;;;;;;;;;;4969810;28;20065;-79
2022/01/30 08:28:06;;;;;;;15.68;2.97;;;;;;;;;;4971019;28;20047;-79
2022/01/30 08:30:32;;;;;;;13.93;2.42;;;;;;;;;;4970698;28;20047;-81
2022/01/30 08:32:59;;;;;;;12.90;3.17;;;;;;;;;;4971552;28;20039;-81
2022/01/30 08:35:26;;;;;;;14.25;2.60;;;;;;;;;;4964639;28;20055;-80
2022/01/30 08:37:52;;;;;;;12.70;2.75;;;;;;;;;;4918296;29;20047;-79
2022/01/30 08:40:20;;;;;;;13.70;2.10;;;;;;;;;;4947680;29;20743;-79
2022/01/30 08:42:47;;;;;;;14.90;2.67;;;;;;;;;;4931361;29;20421;-80
2022/01/30 08:45:15;;;;;;;10.57;2.78;;;;;;;;;;4945900;29;20062;-79
2022/01/30 08:47:46;;;;;;;11.45;2.80;;;;;;;;;;4947350;29;20055;-80
2022/01/30 08:50:13;;;;;;;12.30;2.50;;;;;;;;;;4949254;29;20043;-78
2022/01/30 08:52:41;;;;;;;14.90;3.15;;;;;;;;;;4948488;29;20470;-79
2022/01/30 08:55:08;;;;;;;12.10;2.47;;;;;;;;;;4948057;29;20055;-80
2022/01/30 08:57:37;;;;;;;15.13;2.53;;;;;;;;;;4944099;29;20083;-80
2022/01/30 09:00:06;;;;;;;16.08;2.88;;;;;;;;;;4944435;29;20051;-81
2022/01/30 09:02:32;;;;;;;9.88;2.88;;;;;;;;;;4943962;29;20054;-80
2022/01/30 09:04:58;;;;;;;14.55;3.35;;;;;;;;;;4944175;29;20039;-81
2022/01/30 09:07:24;;;;;;;16.05;2.90;;;;;;;;;;4944448;29;20046;-79
2022/01/30 09:09:50;;;;;;;10.93;2.25;;;;;;;;;;4944176;29;20143;-79
2022/01/30 09:12:16;;;;;;;11.23;2.72;;;;;;;;;;4943179;29;20818;-79
2022/01/30 09:14:43;;;;;;;11.00;2.17;;;;;;;;;;4928054;29;20523;-79
2022/01/30 09:17:15;;;;;;;11.50;2.67;;;;;;;;;;4965138;28;20736;-79
2022/01/30 09:19:42;;;;;;;10.75;2.40;;;;;;;;;;4965290;28;20516;-80
2022/01/30 09:22:10;;;;;;;8.70;2.20;;;;;;;;;;4966363;28;20366;-80
2022/01/30 09:24:37;;;;;;;13.68;3.00;;;;;;;;;;4965424;28;20111;-80
2022/01/30 09:27:03;;;;;;;10.93;2.53;;;;;;;;;;4962308;28;20353;-80
2022/01/30 09:29:30;;;;;;;11.35;2.22;;;;;;;;;;4946852;29;20044;-80
2022/01/30 09:31:56;;;;;;;14.57;3.03;;;;;;;;;;4946462;29;20050;-80
2022/01/30 09:34:22;;;;;;;12.30;2.72;;;;;;;;;;4960546;28;20042;-80
2022/01/30 09:36:48;;;;;;;13.60;2.35;;;;;;;;;;4931618;28;20146;-81
2022/01/30 09:39:14;;;;;;;11.23;2.17;;;;;;;;;;4946468;29;20109;-80
2022/01/30 09:41:42;;;;;;;16.30;3.53;;;;;;;;;;4950974;29;20031;-80
2022/01/30 09:44:09;;;;;;;14.02;2.67;;;;;;;;;;4949177;29;20548;-81
2022/01/30 09:46:39;;;;;;;9.43;2.40;;;;;;;;;;4946211;29;20478;-80
2022/01/30 09:49:06;;;;;;;12.75;2.25;;;;;;;;;;4945438;29;20051;-81
2022/01/30 09:51:34;;;;;;;10.60;2.78;;;;;;;;;;4946280;29;20039;-80
2022/01/30 09:54:03;;;;;;;15.18;2.40;;;;;;;;;;4945099;29;20047;-81
2022/01/30 09:56:29;;;;;;;12.50;2.30;;;;;;;;;;4945773;29;20058;-81
2022/01/30 09:58:55;;;;;;;12.15;2.53;;;;;;;;;;4945167;29;20044;-81
2022/01/30 10:01:22;;;;;;;12.32;2.35;;;;;;;;;;4947009;28;20497;-81
2022/01/30 10:03:48;;;;;;;12.18;2.40;;;;;;;;;;4948407;29;20362;-81
2022/01/30 10:06:20;;;;;;;14.45;2.70;;;;;;;;;;4948369;29;20784;-81
2022/01/30 10:08:49;;;;;;;14.63;2.30;;;;;;;;;;4929881;29;20047;-80
2022/01/30 10:14:14;;;;;;;12.52;2.30;;;;;;;;;;4921458;29;20055;-80
2022/01/30 10:16:44;;;;;;;11.65;2.67;;;;;;;;;;4930460;29;20063;-82
2022/01/30 10:19:23;;;;;;;16.40;2.80;;;;;;;;;;4949487;29;20051;-81
2022/01/30 10:22:08;;;;;;;10.65;2.40;;;;;;;;;;4930636;29;20480;-81
2022/01/30 10:24:40;;;;;;;17.88;2.42;;;;;;;;;;4948290;29;20397;-81
2022/01/30 10:27:26;;;;;;;10.80;2.10;;;;;;;;;;4947428;29;20059;-80
2022/01/30 11:36:54;;;;;;;15.88;3.15;;;;;;;;;;4969748;23;20051;-69
2022/01/30 11:39:20;;;;;;;13.60;3.70;;;;;;;;;;4948799;28;20098;-71
2022/01/30 11:42:06;;;;;;;17.88;3.03;;;;;;;;;;4934090;28;20409;-72
2022/01/30 11:44:32;;;;;;;19.02;3.25;;;;;;;;;;4945212;28;20381;-71
2022/01/30 11:47:01;;;;;;;17.40;3.83;;;;;;;;;;4953579;28;20054;-71
2022/01/30 11:49:50;;;;;;;12.95;2.80;;;;;;;;;;4962779;28;20047;-72
2022/01/30 11:52:17;;;;;;;13.25;2.83;;;;;;;;;;4962556;28;20043;-71
2022/01/30 11:54:57;;;;;;;16.13;2.75;;;;;;;;;;4960419;28;20051;-71
2022/01/30 11:57:27;;;;;;;15.93;3.33;;;;;;;;;;4943039;28;20055;-71
2022/01/30 11:59:57;;;;;;;18.40;3.72;;;;;;;;;;4944929;28;20039;-71
2022/01/30 12:02:26;;;;;;;17.92;3.17;;;;;;;;;;4943569;28;20523;-71
2022/01/30 12:04:53;;;;;;;19.08;4.00;;;;;;;;;;4942446;28;20419;-72
2022/01/30 12:07:39;;;;;;;19.67;3.83;;;;;;;;;;4964389;28;20509;-71
2022/01/30 12:10:19;;;;;;;10.98;2.97;;;;;;;;;;4963871;28;20469;-72
2022/01/30 12:12:59;;;;;;;14.85;3.17;;;;;;;;;;4946182;28;20496;-71
2022/01/30 12:15:36;;;;;;;13.10;2.72;;;;;;;;;;4963608;28;20043;-71
2022/01/30 12:18:09;;;;;;;11.77;3.03;;;;;;;;;;4964780;28;20039;-72
2022/01/30 12:20:56;;;;;;;17.85;3.50;;;;;;;;;;4963623;28;20047;-71
2022/01/30 12:23:29;;;;;;;15.80;3.22;;;;;;;;;;4964093;28;20046;-71
2022/01/30 12:26:04;;;;;;;18.63;2.97;;;;;;;;;;4965513;28;20069;-81
2022/01/30 12:28:43;;;;;;;14.32;3.38;;;;;;;;;;4953512;28;20042;-78
2022/01/30 12:31:34;;;;;;;11.80;2.78;;;;;;;;;;4956836;28;20062;-81
2022/01/30 12:34:06;;;;;;;17.48;3.40;;;;;;;;;;4976195;28;20038;-83
2022/01/30 12:36:36;;;;;;;19.25;3.33;;;;;;;;;;4953961;29;20054;-82
2022/01/30 12:39:07;;;;;;;17.88;3.45;;;;;;;;;;4943968;29;20055;-86
2022/01/30 12:41:35;;;;;;;14.73;3.05;;;;;;;;;;4961471;29;20054;-80
2022/01/30 12:44:05;;;;;;;11.80;3.10;;;;;;;;;;4941007;28;20513;-80
2022/01/30 12:46:39;;;;;;;13.60;3.40;;;;;;;;;;4955765;28;20694;-82
2022/01/30 12:49:23;;;;;;;14.93;4.18;;;;;;;;;;4954230;28;20039;-80
2022/01/30 12:51:58;;;;;;;13.13;3.40;;;;;;;;;;4924736;29;20067;-81
2022/01/30 12:54:26;;;;;;;14.15;3.22;;;;;;;;;;4934740;29;20048;-78
2022/01/30 12:56:54;;;;;;;15.65;3.45;;;;;;;;;;4942803;29;20397;-82
2022/01/30 12:59:23;;;;;;;16.00;2.80;;;;;;;;;;4967319;28;20050;-81
2022/01/30 13:01:50;;;;;;;17.90;3.25;;;;;;;;;;4968940;28;20373;-80
2022/01/30 13:04:18;;;;;;;24.40;3.17;;;;;;;;;;4956213;28;20042;-81
2022/01/30 13:06:47;;;;;;;21.73;3.67;;;;;;;;;;4954444;28;20043;-82
2022/01/30 13:09:19;;;;;;;16.77;2.85;;;;;;;;;;4961828;28;20034;-81
2022/01/30 13:11:45;;;;;;;16.10;3.28;;;;;;;;;;4955973;28;20051;-81
2022/01/30 13:14:11;;;;;;;13.18;2.80;;;;;;;;;;4959095;28;20039;-80
2022/01/30 13:16:43;;;;;;;15.77;2.78;;;;;;;;;;4952449;28;20062;-79
2022/01/30 13:19:14;;;;;;;22.15;3.13;;;;;;;;;;4956240;28;20039;-78
2022/01/30 13:21:44;;;;;;;;;;;;;;;;;;4947117;28;20051;-79
2022/01/30 13:24:16;;;;;;;20.85;4.05;;;;;;;;;;4963018;28;19929;-78
2022/01/30 13:26:43;;;;;;;12.80;2.72;;;;;;;;;;4972777;28;20031;-79
2022/01/30 13:29:18;;;;;;;13.52;2.45;;;;;;;;;;4938117;29;20035;-78
2022/01/30 13:31:46;;;;;;;19.42;3.10;;;;;;;;;;4969090;28;20046;-78
2022/01/30 13:34:25;;;;;;;14.82;3.00;;;;;;;;;;4954498;28;20050;-78
2022/01/30 13:37:12;;;;;;;14.75;3.15;;;;;;;;;;4955813;28;20496;-80
2022/01/30 13:46:55;;;;;;;15.98;2.70;;;;;;;;;;4954563;29;20480;-78
2022/01/30 13:48:07;;;;;;;16.70;2.97;;;;;;;;;;4956109;28;20481;-81
2022/01/30 13:50:36;;;;;;;15.65;3.47;;;;;;;;;;4937677;29;20059;-81
2022/01/30 13:53:14;;;;;;;15.10;3.05;;;;;;;;;;4958205;29;20388;-78
2022/01/30 13:55:54;;;;;;;14.50;3.58;;;;;;;;;;4937188;29;20048;-79
2022/01/30 13:58:22;;;;;;;21.60;3.92;;;;;;;;;;4937190;29;20051;-79
2022/01/30 14:00:48;;;;;;;18.75;3.25;;;;;;;;;;4936350;29;20426;-79
2022/01/30 14:03:28;;;;;;;14.70;3.35;;;;;;;;;;4938640;29;20055;-80
2022/01/30 14:05:56;;;;;;;16.58;3.40;;;;;;;;;;4956727;28;20047;-80
2022/01/30 14:08:24;;;;;;;16.40;2.80;;;;;;;;;;4969278;28;20030;-78
2022/01/30 14:11:08;;;;;;;19.42;3.40;;;;;;;;;;4975538;28;20299;-79
2022/01/30 14:13:43;;;;;;;14.90;2.67;;;;;;;;;;4954054;28;20039;-81
2022/01/30 14:16:18;;;;;;;16.25;3.17;;;;;;;;;;4949947;28;20043;-78
2022/01/30 14:18:45;;;;;;;10.52;2.75;;;;;;;;;;4949548;29;20047;-80
2022/01/30 14:21:15;;;;;;;15.82;3.47;;;;;;;;;;4967274;28;20034;-79
2022/01/30 14:23:41;;;;;;;18.48;3.03;;;;;;;;;;4944672;28;20043;-79
2022/01/30 14:26:28;;;;;;;22.27;4.07;;;;;;;;;;4975579;28;20051;-79
2022/01/30 14:29:12;;;;;;;19.00;3.17;;;;;;;;;;4974645;28;20031;-80
2022/01/30 14:31:56;;;;;;;16.30;3.33;;;;;;;;;;4970507;28;20046;-78
2022/01/30 14:34:23;;;;;;;17.33;3.33;;;;;;;;;;4955081;28;20062;-77
2022/01/30 14:36:52;;;;;;;21.67;3.20;;;;;;;;;;4957975;28;20038;-79
2022/01/30 14:39:18;;;;;;;14.93;3.25;;;;;;;;;;4954534;28;20051;-78
2022/01/30 14:41:44;;;;;;;13.88;2.83;;;;;;;;;;4952812;28;20118;-77
2022/01/30 14:44:10;;;;;;;14.90;3.15;;;;;;;;;;4918102;28;20046;-78
2022/01/30 14:46:36;;;;;;;16.50;3.05;;;;;;;;;;4938252;28;20050;-78
2022/01/30 14:49:03;;;;;;;20.52;3.58;;;;;;;;;;4958343;28;20122;-77
2022/01/30 14:51:29;;;;;;;17.73;3.47;;;;;;;;;;4942115;28;20417;-78
2022/01/30 14:53:55;;;;;;;10.98;2.85;;;;;;;;;;4942006;28;20045;-78
2022/01/30 14:56:21;;;;;;;15.55;3.28;;;;;;;;;;4961148;28;20043;-77
2022/01/30 14:58:47;;;;;;;14.68;2.83;;;;;;;;;;4966485;28;20138;-78
2022/01/30 15:01:13;;;;;;;14.50;2.95;;;;;;;;;;4967433;28;20057;-77
2022/01/30 15:03:39;;;;;;;12.55;3.33;;;;;;;;;;4954469;28;20046;-78
2022/01/30 15:06:04;;;;;;;16.17;2.83;;;;;;;;;;4952225;28;20120;-78
2022/01/30 15:08:30;;;;;;;12.98;2.90;;;;;;;;;;4954052;28;20023;-78
2022/01/30 15:10:56;;;;;;;15.30;2.92;;;;;;;;;;4962190;28;20677;-77
2022/01/30 15:13:23;;;;;;;14.52;2.92;;;;;;;;;;4952358;28;20058;-77
2022/01/30 15:15:53;;;;;;;14.40;2.78;;;;;;;;;;4943300;28;20054;-79
2022/01/30 15:18:29;;;;;;;15.52;3.03;;;;;;;;;;4936152;28;20062;-78
2022/01/30 15:20:55;;;;;;;13.48;2.83;;;;;;;;;;4938246;28;20431;-78
2022/01/30 15:23:21;;;;;;;18.48;3.78;;;;;;;;;;4951370;28;20198;-77
2022/01/30 15:25:48;;;;;;;15.90;3.20;;;;;;;;;;4973664;28;20035;-78
2022/01/30 15:28:14;;;;;;;21.58;3.17;;;;;;;;;;4973166;28;20062;-78
2022/01/30 15:30:40;;;;;;;19.58;2.70;;;;;;;;;;4971519;28;20046;-78
2022/01/30 15:33:06;;;;;;;9.07;2.67;;;;;;;;;;4971368;28;20038;-82
2022/01/30 15:35:32;;;;;;;17.75;4.65;;;;;;;;;;4965859;28;20582;-77
2022/01/30 15:37:59;;;;;;;15.55;3.55;;;;;;;;;;4938985;28;20047;-79
2022/01/30 15:40:26;;;;;;;17.10;3.45;;;;;;;;;;4959085;28;20082;-77
2022/01/30 15:42:51;;;;;;;15.95;3.85;;;;;;;;;;4961348;28;20357;-80
2022/01/30 15:50:28;;;;;;;22.00;3.45;;;;;;;;;;4955429;28;20043;-78
2022/01/30 15:52:55;;;;;;;16.80;3.50;;;;;;;;;;4961557;28;20039;-79
2022/01/30 15:55:22;;;;;;;19.05;3.00;;;;;;;;;;4966523;28;20046;-79
2022/01/30 15:57:50;;;;;;;15.73;3.90;;;;;;;;;;4958138;28;20039;-77
2022/01/30 16:00:18;;;;;;;18.60;3.00;;;;;;;;;;4932226;29;20050;-78
2022/01/30 16:02:44;;;;;;;23.15;3.50;;;;;;;;;;4954008;28;20609;-76
2022/01/30 16:05:11;;;;;;;17.60;3.38;;;;;;;;;;4964875;28;20032;-76
2022/01/30 16:07:38;;;;;;;15.40;3.25;;;;;;;;;;4941481;28;20051;-78
2022/01/30 16:10:10;;;;;;;19.33;3.58;;;;;;;;;;4969516;28;20035;-78
2022/01/30 16:18:00;;;;;;;18.10;2.95;;;;;;;;;;4971098;28;20051;-79
2022/01/30 16:20:27;;;;;;;17.45;3.00;;;;;;;;;;4956648;28;20527;-79
2022/01/30 16:22:53;;;;;;;23.52;3.45;;;;;;;;;;4974795;28;20035;-77
2022/01/30 16:25:19;;;;;;;15.23;3.75;;;;;;;;;;4954938;28;20050;-77
2022/01/30 16:27:46;;;;;;;18.45;4.03;;;;;;;;;;4955819;28;20046;-77
2022/01/30 16:30:13;;;;;;;16.60;2.80;;;;;;;;;;4939803;28;20046;-77
2022/01/30 16:32:40;;;;;;;16.65;3.42;;;;;;;;;;4979692;28;20034;-76
2022/01/30 16:35:11;;;;;;;21.23;3.50;;;;;;;;;;4953147;28;20043;-76
2022/01/30 16:37:38;;;;;;;19.25;3.97;;;;;;;;;;4954166;28;20054;-75
2022/01/30 16:40:05;;;;;;;20.13;3.53;;;;;;;;;;4976334;28;20629;-76
2022/01/30 16:42:33;;;;;;;15.38;3.40;;;;;;;;;;4973963;28;20042;-74
2022/01/30 16:45:09;;;;;;;16.98;3.67;;;;;;;;;;4955559;28;20051;-75
2022/01/30 16:47:35;;;;;;;20.23;3.80;;;;;;;;;;4954746;28;20058;-76
2022/01/30 16:50:03;;;;;;;17.60;3.22;;;;;;;;;;4974643;28;20046;-76
2022/01/30 16:52:32;;;;;;;17.33;3.63;;;;;;;;;;4942860;28;20050;-75
2022/01/30 16:54:58;;;;;;;16.00;3.63;;;;;;;;;;4974918;28;20043;-76
2022/01/30 16:57:25;;;;;;;14.27;4.85;;;;;;;;;;4973862;28;20169;-76
2022/01/30 16:59:51;;;;;;;23.20;5.38;;;;;;;;;;4940235;29;20509;-75
2022/01/30 17:02:17;;;;;;;25.60;5.53;;;;;;;;;;4974353;28;20057;-77
2022/01/30 17:04:43;;;;;;;24.48;6.00;;;;;;;;;;4957256;28;20047;-76
2022/01/30 17:07:10;;;;;;;27.58;8.00;;;;;;;;;;4976486;28;20214;-75
2022/01/30 17:09:39;;;;;;;18.05;4.22;;;;;;;;;;4967470;28;20046;-77